sensor_id;sensor_type;location;lat;lon;timestamp;P1;durP1;ratioP1;P2;durP2;ratioP2
13568;SDS011;6856;51.460;7.158;2022-08-02T06:17:40;4.43;;;2.37;;
13568;SDS011;6856;51.460;7.158;2022-08-02T06:20:16;3.40;;;2.60;;
13568;SDS011;6856;51.460;7.158;2022-08-02T06:22:52;4.87;;;2.50;;
13568;SDS011;6856;51.460;7.158;2022-08-02T06:25:32;2.83;;;2.43;;
13568;SDS011;6856;51.460;7.158;2022-08-02T06:28:22;3.40;;;2.20;;
13568;SDS011;6856;51.460;7.158;2022-08-02T06:30:57;3.83;;;2.60;;
13568;SDS011;6856;51.460;7.158;2022-08-02T06:33:32;4.00;;;2.53;;
13568;SDS011;6856;51.460;7.158;2022-08-02T06:36:07;3.73;;;2.20;;
13568;SDS011;6856;51.460;7.158;2022-08-02T06:38:48;4.47;;;2.67;;
13568;SDS011;6856;51.460;7.158;2022-08-02T06:41:36;6.30;;;2.57;;
13568;SDS011;6856;51.460;7.158;2022-08-02T06:44:12;4.67;;;2.83;;
13568;SDS011;6856;51.460;7.158;2022-08-02T06:47:06;4.07;;;2.30;;
13568;SDS011;6856;51.460;7.158;2022-08-02T06:49:45;3.13;;;2.80;;
13568;SDS011;6856;51.460;7.158;2022-08-02T06:52:24;5.37;;;2.70;;
13568;SDS011;6856;51.460;7.158;2022-08-02T06:55:02;4.77;;;2.70;;
13568;SDS011;6856;51.460;7.158;2022-08-02T06:57:38;3.60;;;2.60;;
13568;SDS011;6856;51.460;7.158;2022-08-02T07:00:12;4.03;;;2.60;;
13568;SDS011;6856;51.460;7.158;2022-08-02T07:02:49;3.43;;;2.23;;
13568;SDS011;6856;51.460;7.158;2022-08-02T07:05:25;2.80;;;2.33;;
13568;SDS011;6856;51.460;7.158;2022-08-02T07:08:00;4.10;;;2.37;;
13568;SDS011;6856;51.460;7.158;2022-08-02T07:10:33;3.63;;;2.47;;
13568;SDS011;6856;51.460;7.158;2022-08-02T07:13:07;3.13;;;2.50;;
13568;SDS011;6856;51.460;7.158;2022-08-02T07:15:41;4.07;;;2.60;;
13568;SDS011;6856;51.460;7.158;2022-08-02T07:18:20;4.43;;;2.67;;
13568;SDS011;6856;51.460;7.158;2022-08-02T07:20:59;5.53;;;2.40;;
13568;SDS011;6856;51.460;7.158;2022-08-02T07:23:35;4.43;;;2.23;;
13568;SDS011;6856;51.460;7.158;2022-08-02T07:26:08;4.20;;;2.43;;
13568;SDS011;6856;51.460;7.158;2022-08-02T07:28:42;3.03;;;2.10;;
13568;SDS011;6856;51.460;7.158;2022-08-02T07:31:15;2.40;;;2.07;;
13568;SDS011;6856;51.460;7.158;2022-08-02T07:33:49;4.20;;;2.50;;
13568;SDS011;6856;51.460;7.158;2022-08-02T07:36:24;4.87;;;2.53;;
13568;SDS011;6856;51.460;7.158;2022-08-02T07:38:58;2.83;;;2.20;;
13568;SDS011;6856;51.460;7.158;2022-08-02T07:41:32;2.43;;;2.00;;
13568;SDS011;6856;51.460;7.158;2022-08-02T07:44:06;3.17;;;1.92;;
13568;SDS011;6856;51.460;7.158;2022-08-02T07:46:39;4.82;;;2.40;;
13568;SDS011;6856;51.460;7.158;2022-08-02T07:49:13;2.25;;;1.90;;
13568;SDS011;6856;51.460;7.158;2022-08-02T07:51:51;2.78;;;2.03;;
13568;SDS011;6856;51.460;7.158;2022-08-02T07:54:25;3.75;;;2.00;;
13568;SDS011;6856;51.460;7.158;2022-08-02T07:56:59;3.55;;;2.10;;
13568;SDS011;6856;51.460;7.158;2022-08-02T07:59:32;2.92;;;1.83;;
13568;SDS011;6856;51.460;7.158;2022-08-02T08:02:06;2.13;;;1.73;;
13568;SDS011;6856;51.460;7.158;2022-08-02T08:04:40;2.28;;;1.67;;
13568;SDS011;6856;51.460;7.158;2022-08-02T08:07:16;2.15;;;1.63;;
13568;SDS011;6856;51.460;7.158;2022-08-02T08:09:51;2.30;;;1.58;;
13568;SDS011;6856;51.460;7.158;2022-08-02T08:12:28;1.70;;;1.40;;
13568;SDS011;6856;51.460;7.158;2022-08-02T08:15:01;3.60;;;1.52;;
13568;SDS011;6856;51.460;7.158;2022-08-02T08:17:37;1.67;;;1.50;;
13568;SDS011;6856;51.460;7.158;2022-08-02T08:20:10;1.75;;;1.33;;
13568;SDS011;6856;51.460;7.158;2022-08-02T08:22:48;1.95;;;1.40;;
13568;SDS011;6856;51.460;7.158;2022-08-02T08:25:21;1.55;;;1.08;;
13568;SDS011;6856;51.460;7.158;2022-08-02T08:27:57;1.15;;;1.08;;
13568;SDS011;6856;51.460;7.158;2022-08-02T08:30:32;1.48;;;1.35;;
13568;SDS011;6856;51.460;7.158;2022-08-02T08:33:06;1.45;;;1.23;;
13568;SDS011;6856;51.460;7.158;2022-08-02T08:35:39;1.13;;;1.02;;
13568;SDS011;6856;51.460;7.158;2022-08-02T08:38:15;4.20;;;1.35;;
13568;SDS011;6856;51.460;7.158;2022-08-02T08:40:49;2.88;;;1.23;;
13568;SDS011;6856;51.460;7.158;2022-08-02T08:43:23;1.33;;;1.10;;
13568;SDS011;6856;51.460;7.158;2022-08-02T08:45:58;1.25;;;1.10;;
13568;SDS011;6856;51.460;7.158;2022-08-02T08:48:32;1.27;;;1.17;;
13568;SDS011;6856;51.460;7.158;2022-08-02T08:51:17;1.98;;;0.93;;
13568;SDS011;6856;51.460;7.158;2022-08-02T08:53:55;2.50;;;1.42;;
13568;SDS011;6856;51.460;7.158;2022-08-02T08:56:35;1.50;;;1.20;;
13568;SDS011;6856;51.460;7.158;2022-08-02T08:59:12;3.35;;;1.42;;
13568;SDS011;6856;51.460;7.158;2022-08-02T09:01:46;1.40;;;1.30;;
13568;SDS011;6856;51.460;7.158;2022-08-02T09:04:22;1.90;;;1.50;;
13568;SDS011;6856;51.460;7.158;2022-08-02T09:06:55;1.23;;;1.13;;
13568;SDS011;6856;51.460;7.158;2022-08-02T09:09:30;2.33;;;1.33;;
13568;SDS011;6856;51.460;7.158;2022-08-02T09:12:13;1.65;;;1.15;;
13568;SDS011;6856;51.460;7.158;2022-08-02T09:14:48;2.10;;;1.27;;
13568;SDS011;6856;51.460;7.158;2022-08-02T09:17:23;1.30;;;1.20;;
13568;SDS011;6856;51.460;7.158;2022-08-02T09:20:05;1.52;;;1.20;;
13568;SDS011;6856;51.460;7.158;2022-08-02T09:22:40;3.33;;;1.65;;
13568;SDS011;6856;51.460;7.158;2022-08-02T09:25:15;2.38;;;1.40;;
13568;SDS011;6856;51.460;7.158;2022-08-02T09:27:49;1.40;;;1.20;;
13568;SDS011;6856;51.460;7.158;2022-08-02T09:30:24;1.42;;;1.33;;
13568;SDS011;6856;51.460;7.158;2022-08-02T09:32:58;2.08;;;1.35;;
13568;SDS011;6856;51.460;7.158;2022-08-02T09:35:36;1.88;;;1.50;;
13568;SDS011;6856;51.460;7.158;2022-08-02T09:38:31;2.50;;;1.50;;
13568;SDS011;6856;51.460;7.158;2022-08-02T09:41:20;2.60;;;1.52;;
13568;SDS011;6856;51.460;7.158;2022-08-02T09:43:56;2.05;;;1.67;;
13568;SDS011;6856;51.460;7.158;2022-08-02T09:46:37;2.70;;;1.58;;
13568;SDS011;6856;51.460;7.158;2022-08-02T09:49:12;2.03;;;1.70;;
13568;SDS011;6856;51.460;7.158;2022-08-02T09:51:48;2.42;;;1.50;;
13568;SDS011;6856;51.460;7.158;2022-08-02T09:54:25;1.70;;;1.50;;
13568;SDS011;6856;51.460;7.158;2022-08-02T09:57:02;1.73;;;1.52;;
13568;SDS011;6856;51.460;7.158;2022-08-02T09:59:36;2.47;;;1.67;;
13568;SDS011;6856;51.460;7.158;2022-08-02T10:02:09;3.05;;;1.88;;
13568;SDS011;6856;51.460;7.158;2022-08-02T10:04:47;2.17;;;1.55;;
13568;SDS011;6856;51.460;7.158;2022-08-02T10:07:23;2.00;;;1.38;;
13568;SDS011;6856;51.460;7.158;2022-08-02T10:09:57;7.88;;;1.48;;
13568;SDS011;6856;51.460;7.158;2022-08-02T10:12:34;2.15;;;1.55;;
13568;SDS011;6856;51.460;7.158;2022-08-02T10:15:08;2.13;;;1.75;;
13568;SDS011;6856;51.460;7.158;2022-08-02T10:17:43;2.15;;;1.80;;
13568;SDS011;6856;51.460;7.158;2022-08-02T10:20:18;1.92;;;1.40;;
13568;SDS011;6856;51.460;7.158;2022-08-02T10:22:52;2.15;;;1.42;;
13568;SDS011;6856;51.460;7.158;2022-08-02T10:25:29;2.22;;;1.35;;
13568;SDS011;6856;51.460;7.158;2022-08-02T10:28:06;1.75;;;1.48;;
13568;SDS011;6856;51.460;7.158;2022-08-02T10:30:47;4.93;;;1.98;;
13568;SDS011;6856;51.460;7.158;2022-08-02T10:33:22;2.28;;;1.80;;
13568;SDS011;6856;51.460;7.158;2022-08-02T10:35:57;2.03;;;1.83;;
13568;SDS011;6856;51.460;7.158;2022-08-02T10:38:37;3.10;;;2.15;;
13568;SDS011;6856;51.460;7.158;2022-08-02T10:41:11;3.30;;;2.17;;
13568;SDS011;6856;51.460;7.158;2022-08-02T10:43:47;3.42;;;1.92;;
13568;SDS011;6856;51.460;7.158;2022-08-02T10:46:31;2.30;;;1.90;;
13568;SDS011;6856;51.460;7.158;2022-08-02T10:49:08;2.50;;;1.77;;
13568;SDS011;6856;51.460;7.158;2022-08-02T10:52:05;2.80;;;2.10;;
13568;SDS011;6856;51.460;7.158;2022-08-02T10:54:42;2.22;;;1.65;;
13568;SDS011;6856;51.460;7.158;2022-08-02T10:57:27;1.98;;;1.60;;
13568;SDS011;6856;51.460;7.158;2022-08-02T11:00:09;3.05;;;1.77;;
13568;SDS011;6856;51.460;7.158;2022-08-02T11:02:57;4.15;;;2.15;;
13568;SDS011;6856;51.460;7.158;2022-08-02T11:05:31;2.05;;;1.63;;
13568;SDS011;6856;51.460;7.158;2022-08-02T11:08:17;2.25;;;1.40;;
13568;SDS011;6856;51.460;7.158;2022-08-02T11:10:57;2.28;;;1.90;;
13568;SDS011;6856;51.460;7.158;2022-08-02T11:13:33;2.22;;;1.80;;
13568;SDS011;6856;51.460;7.158;2022-08-02T11:22:50;2.22;;;2.03;;
13568;SDS011;6856;51.460;7.158;2022-08-02T11:25:29;2.75;;;2.00;;
13568;SDS011;6856;51.460;7.158;2022-08-02T11:28:27;2.60;;;1.90;;
13568;SDS011;6856;51.460;7.158;2022-08-02T11:31:01;3.33;;;1.60;;
13568;SDS011;6856;51.460;7.158;2022-08-02T11:33:36;3.53;;;1.88;;
13568;SDS011;6856;51.460;7.158;2022-08-02T11:36:11;2.05;;;1.48;;
13568;SDS011;6856;51.460;7.158;2022-08-02T11:38:45;1.95;;;1.65;;
13568;SDS011;6856;51.460;7.158;2022-08-02T11:41:19;2.15;;;1.38;;
13568;SDS011;6856;51.460;7.158;2022-08-02T11:44:14;2.58;;;1.83;;
13568;SDS011;6856;51.460;7.158;2022-08-02T11:46:53;2.33;;;1.80;;
13568;SDS011;6856;51.460;7.158;2022-08-02T11:49:29;2.03;;;1.77;;
13568;SDS011;6856;51.460;7.158;2022-08-02T11:52:04;1.67;;;1.55;;
13568;SDS011;6856;51.460;7.158;2022-08-02T11:54:41;1.85;;;1.45;;
13568;SDS011;6856;51.460;7.158;2022-08-02T11:57:16;2.58;;;1.40;;
13568;SDS011;6856;51.460;7.158;2022-08-02T11:59:55;1.60;;;1.42;;
13568;SDS011;6856;51.460;7.158;2022-08-02T12:02:29;1.80;;;1.40;;
13568;SDS011;6856;51.460;7.158;2022-08-02T12:05:08;1.50;;;1.40;;
13568;SDS011;6856;51.460;7.158;2022-08-02T12:07:50;1.70;;;1.30;;
13568;SDS011;6856;51.460;7.158;2022-08-02T12:10:30;6.25;;;1.42;;
13568;SDS011;6856;51.460;7.158;2022-08-02T12:13:06;1.40;;;1.10;;
13568;SDS011;6856;51.460;7.158;2022-08-02T12:15:41;1.88;;;1.25;;
13568;SDS011;6856;51.460;7.158;2022-08-02T12:18:20;1.67;;;1.10;;
13568;SDS011;6856;51.460;7.158;2022-08-02T12:21:30;1.90;;;1.27;;
13568;SDS011;6856;51.460;7.158;2022-08-02T12:24:04;2.25;;;1.60;;
13568;SDS011;6856;51.460;7.158;2022-08-02T12:26:41;1.30;;;1.13;;
13568;SDS011;6856;51.460;7.158;2022-08-02T12:29:27;1.60;;;1.40;;
13568;SDS011;6856;51.460;7.158;2022-08-02T12:32:23;1.70;;;1.33;;
13568;SDS011;6856;51.460;7.158;2022-08-02T12:35:02;2.20;;;1.55;;
13568;SDS011;6856;51.460;7.158;2022-08-02T12:37:42;1.92;;;1.50;;
13568;SDS011;6856;51.460;7.158;2022-08-02T12:40:20;1.40;;;1.30;;
13568;SDS011;6856;51.460;7.158;2022-08-02T12:42:57;1.52;;;1.23;;
13568;SDS011;6856;51.460;7.158;2022-08-02T12:45:46;4.50;;;1.50;;
13568;SDS011;6856;51.460;7.158;2022-08-02T12:48:33;2.78;;;1.40;;
13568;SDS011;6856;51.460;7.158;2022-08-02T12:51:36;1.67;;;1.45;;
13568;SDS011;6856;51.460;7.158;2022-08-02T12:54:37;1.85;;;1.25;;
13568;SDS011;6856;51.460;7.158;2022-08-02T12:57:13;1.30;;;1.20;;
13568;SDS011;6856;51.460;7.158;2022-08-02T12:59:51;1.80;;;1.23;;
13568;SDS011;6856;51.460;7.158;2022-08-02T13:02:25;1.17;;;1.08;;
13568;SDS011;6856;51.460;7.158;2022-08-02T13:04:59;1.55;;;1.10;;
13568;SDS011;6856;51.460;7.158;2022-08-02T13:07:33;1.08;;;0.98;;
13568;SDS011;6856;51.460;7.158;2022-08-02T13:10:08;3.28;;;1.27;;
13568;SDS011;6856;51.460;7.158;2022-08-02T13:12:42;2.00;;;1.30;;
13568;SDS011;6856;51.460;7.158;2022-08-02T13:15:17;1.30;;;0.93;;
13568;SDS011;6856;51.460;7.158;2022-08-02T13:18:12;2.35;;;1.27;;
13568;SDS011;6856;51.460;7.158;2022-08-02T13:20:47;1.52;;;1.20;;
13568;SDS011;6856;51.460;7.158;2022-08-02T13:23:21;1.58;;;1.30;;
13568;SDS011;6856;51.460;7.158;2022-08-02T13:26:17;1.65;;;1.13;;
13568;SDS011;6856;51.460;7.158;2022-08-02T13:28:51;1.20;;;1.10;;
13568;SDS011;6856;51.460;7.158;2022-08-02T13:31:28;1.85;;;1.35;;
13568;SDS011;6856;51.460;7.158;2022-08-02T13:34:08;1.85;;;1.45;;
13568;SDS011;6856;51.460;7.158;2022-08-02T13:36:41;1.45;;;1.35;;
13568;SDS011;6856;51.460;7.158;2022-08-02T13:39:15;2.35;;;1.40;;
13568;SDS011;6856;51.460;7.158;2022-08-02T13:41:50;1.20;;;1.10;;
13568;SDS011;6856;51.460;7.158;2022-08-02T13:44:26;2.47;;;1.42;;
13568;SDS011;6856;51.460;7.158;2022-08-02T13:47:01;1.67;;;1.30;;
13568;SDS011;6856;51.460;7.158;2022-08-02T13:49:36;2.25;;;1.20;;
13568;SDS011;6856;51.460;7.158;2022-08-02T13:52:26;1.60;;;1.50;;
13568;SDS011;6856;51.460;7.158;2022-08-02T13:55:02;1.45;;;1.30;;
13568;SDS011;6856;51.460;7.158;2022-08-02T13:57:44;1.45;;;1.35;;
13568;SDS011;6856;51.460;7.158;2022-08-02T14:00:26;1.40;;;1.30;;
13568;SDS011;6856;51.460;7.158;2022-08-02T14:03:06;1.30;;;1.20;;
13568;SDS011;6856;51.460;7.158;2022-08-02T14:05:42;2.05;;;1.20;;
13568;SDS011;6856;51.460;7.158;2022-08-02T14:08:19;2.47;;;1.30;;
13568;SDS011;6856;51.460;7.158;2022-08-02T14:10:54;1.77;;;1.38;;
13568;SDS011;6856;51.460;7.158;2022-08-02T14:13:29;1.30;;;1.20;;
13568;SDS011;6856;51.460;7.158;2022-08-02T14:16:06;1.20;;;1.10;;
13568;SDS011;6856;51.460;7.158;2022-08-02T14:18:40;1.50;;;1.40;;
13568;SDS011;6856;51.460;7.158;2022-08-02T14:21:14;1.75;;;1.05;;
13568;SDS011;6856;51.460;7.158;2022-08-02T14:23:48;1.73;;;1.35;;
13568;SDS011;6856;51.460;7.158;2022-08-02T14:26:23;1.70;;;1.30;;
13568;SDS011;6856;51.460;7.158;2022-08-02T14:28:59;2.50;;;1.30;;
13568;SDS011;6856;51.460;7.158;2022-08-02T14:31:36;1.42;;;1.33;;
13568;SDS011;6856;51.460;7.158;2022-08-02T14:34:15;1.60;;;1.30;;
13568;SDS011;6856;51.460;7.158;2022-08-02T14:36:48;2.97;;;1.20;;
13568;SDS011;6856;51.460;7.158;2022-08-02T14:39:24;1.77;;;1.38;;
13568;SDS011;6856;51.460;7.158;2022-08-02T14:42:16;2.67;;;1.20;;
13568;SDS011;6856;51.460;7.158;2022-08-02T14:44:59;1.65;;;1.20;;
13568;SDS011;6856;51.460;7.158;2022-08-02T14:47:36;0.90;;;0.90;;
13568;SDS011;6856;51.460;7.158;2022-08-02T14:50:20;1.52;;;1.40;;
13568;SDS011;6856;51.460;7.158;2022-08-02T14:52:56;1.60;;;1.10;;
13568;SDS011;6856;51.460;7.158;2022-08-02T14:55:30;1.38;;;1.05;;
13568;SDS011;6856;51.460;7.158;2022-08-02T14:58:06;1.20;;;1.10;;
13568;SDS011;6856;51.460;7.158;2022-08-02T15:00:41;1.33;;;1.20;;
13568;SDS011;6856;51.460;7.158;2022-08-02T15:03:16;1.63;;;1.20;;
13568;SDS011;6856;51.460;7.158;2022-08-02T15:05:50;1.75;;;1.10;;
13568;SDS011;6856;51.460;7.158;2022-08-02T15:08:24;1.30;;;1.20;;
13568;SDS011;6856;51.460;7.158;2022-08-02T15:10:59;1.30;;;1.20;;
13568;SDS011;6856;51.460;7.158;2022-08-02T15:13:32;1.60;;;1.23;;
13568;SDS011;6856;51.460;7.158;2022-08-02T15:16:14;1.50;;;1.35;;
13568;SDS011;6856;51.460;7.158;2022-08-02T15:18:48;2.25;;;1.60;;
13568;SDS011;6856;51.460;7.158;2022-08-02T15:21:22;1.60;;;1.33;;
13568;SDS011;6856;51.460;7.158;2022-08-02T15:24:15;1.77;;;1.35;;
13568;SDS011;6856;51.460;7.158;2022-08-02T15:26:49;1.52;;;1.38;;
13568;SDS011;6856;51.460;7.158;2022-08-02T15:29:23;1.58;;;1.20;;
13568;SDS011;6856;51.460;7.158;2022-08-02T15:31:58;1.48;;;1.08;;
13568;SDS011;6856;51.460;7.158;2022-08-02T15:34:33;1.40;;;1.30;;
13568;SDS011;6856;51.460;7.158;2022-08-02T15:37:07;1.40;;;1.13;;
13568;SDS011;6856;51.460;7.158;2022-08-02T15:39:41;1.77;;;1.35;;
13568;SDS011;6856;51.460;7.158;2022-08-02T15:42:17;1.70;;;1.27;;
13568;SDS011;6856;51.460;7.158;2022-08-02T15:45:01;1.63;;;1.35;;
13568;SDS011;6856;51.460;7.158;2022-08-02T15:47:36;1.40;;;1.30;;
13568;SDS011;6856;51.460;7.158;2022-08-02T15:50:18;1.20;;;1.10;;
13568;SDS011;6856;51.460;7.158;2022-08-02T15:52:52;2.17;;;1.30;;
13568;SDS011;6856;51.460;7.158;2022-08-02T15:55:25;1.73;;;1.30;;
13568;SDS011;6856;51.460;7.158;2022-08-02T15:58:10;1.67;;;1.10;;
13568;SDS011;6856;51.460;7.158;2022-08-02T16:00:48;1.73;;;1.17;;
13568;SDS011;6856;51.460;7.158;2022-08-02T16:03:24;1.08;;;1.00;;
13568;SDS011;6856;51.460;7.158;2022-08-02T16:05:58;1.27;;;1.00;;
13568;SDS011;6856;51.460;7.158;2022-08-02T16:08:35;1.25;;;1.15;;
13568;SDS011;6856;51.460;7.158;2022-08-02T16:11:15;1.10;;;1.00;;
13568;SDS011;6856;51.460;7.158;2022-08-02T16:13:49;1.27;;;1.10;;
13568;SDS011;6856;51.460;7.158;2022-08-02T16:16:26;1.33;;;1.08;;
13568;SDS011;6856;51.460;7.158;2022-08-02T16:19:20;0.90;;;0.90;;
13568;SDS011;6856;51.460;7.158;2022-08-02T16:22:14;1.20;;;1.02;;
13568;SDS011;6856;51.460;7.158;2022-08-02T16:25:03;1.92;;;1.15;;
13568;SDS011;6856;51.460;7.158;2022-08-02T16:27:48;1.42;;;1.10;;
13568;SDS011;6856;51.460;7.158;2022-08-02T16:30:38;1.38;;;1.15;;
13568;SDS011;6856;51.460;7.158;2022-08-02T16:33:59;1.25;;;0.98;;
13568;SDS011;6856;51.460;7.158;2022-08-02T16:37:03;1.40;;;0.95;;
13568;SDS011;6856;51.460;7.158;2022-08-02T16:40:23;1.63;;;0.90;;
13568;SDS011;6856;51.460;7.158;2022-08-02T16:43:15;1.48;;;1.00;;
13568;SDS011;6856;51.460;7.158;2022-08-02T16:49:35;1.17;;;0.93;;
13568;SDS011;6856;51.460;7.158;2022-08-02T16:52:37;1.30;;;1.00;;
13568;SDS011;6856;51.460;7.158;2022-08-02T16:55:15;1.27;;;1.00;;
13568;SDS011;6856;51.460;7.158;2022-08-02T16:57:53;1.02;;;0.98;;
13568;SDS011;6856;51.460;7.158;2022-08-02T17:00:43;0.90;;;0.90;;
13568;SDS011;6856;51.460;7.158;2022-08-02T17:04:00;1.40;;;0.90;;
13568;SDS011;6856;51.460;7.158;2022-08-02T17:06:46;1.33;;;0.85;;
13568;SDS011;6856;51.460;7.158;2022-08-02T17:09:24;1.45;;;1.15;;
13568;SDS011;6856;51.460;7.158;2022-08-02T17:12:17;0.73;;;0.73;;
13568;SDS011;6856;51.460;7.158;2022-08-02T17:18:23;2.33;;;1.40;;
13568;SDS011;6856;51.460;7.158;2022-08-02T17:21:21;1.17;;;1.08;;
13568;SDS011;6856;51.460;7.158;2022-08-02T17:23:57;1.27;;;1.17;;
13568;SDS011;6856;51.460;7.158;2022-08-02T17:29:53;0.80;;;0.80;;
13568;SDS011;6856;51.460;7.158;2022-08-02T17:32:41;1.60;;;1.10;;
13568;SDS011;6856;51.460;7.158;2022-08-02T17:35:16;1.45;;;0.90;;
13568;SDS011;6856;51.460;7.158;2022-08-02T17:37:55;1.80;;;1.30;;
13568;SDS011;6856;51.460;7.158;2022-08-02T17:40:50;1.02;;;0.90;;
13568;SDS011;6856;51.460;7.158;2022-08-02T17:43:47;1.70;;;0.90;;
13568;SDS011;6856;51.460;7.158;2022-08-02T17:46:21;1.20;;;0.95;;
13568;SDS011;6856;51.460;7.158;2022-08-02T17:48:58;1.63;;;1.30;;
13568;SDS011;6856;51.460;7.158;2022-08-02T17:51:54;1.13;;;0.95;;
13568;SDS011;6856;51.460;7.158;2022-08-02T17:54:56;2.10;;;1.10;;
13568;SDS011;6856;51.460;7.158;2022-08-02T18:01:09;1.65;;;0.90;;
13568;SDS011;6856;51.460;7.158;2022-08-02T18:07:51;2.10;;;1.00;;
13568;SDS011;6856;51.460;7.158;2022-08-02T18:10:31;0.80;;;0.73;;
13568;SDS011;6856;51.460;7.158;2022-08-02T18:13:06;0.75;;;0.75;;
13568;SDS011;6856;51.460;7.158;2022-08-02T18:15:42;0.98;;;0.88;;
13568;SDS011;6856;51.460;7.158;2022-08-02T18:18:18;0.95;;;0.88;;
13568;SDS011;6856;51.460;7.158;2022-08-02T18:21:00;1.00;;;0.90;;
13568;SDS011;6856;51.460;7.158;2022-08-02T18:23:52;1.33;;;1.00;;
13568;SDS011;6856;51.460;7.158;2022-08-02T18:26:29;1.13;;;1.00;;
13568;SDS011;6856;51.460;7.158;2022-08-02T18:29:04;2.47;;;1.00;;
13568;SDS011;6856;51.460;7.158;2022-08-02T18:31:39;1.00;;;0.90;;
13568;SDS011;6856;51.460;7.158;2022-08-02T18:34:23;1.30;;;1.02;;
13568;SDS011;6856;51.460;7.158;2022-08-02T18:36:58;0.93;;;0.90;;
13568;SDS011;6856;51.460;7.158;2022-08-02T18:39:32;0.80;;;0.80;;
13568;SDS011;6856;51.460;7.158;2022-08-02T18:42:09;1.20;;;1.10;;
13568;SDS011;6856;51.460;7.158;2022-08-02T18:44:48;1.95;;;0.90;;
13568;SDS011;6856;51.460;7.158;2022-08-02T18:47:22;1.40;;;1.00;;
13568;SDS011;6856;51.460;7.158;2022-08-02T18:50:05;1.67;;;1.10;;
13568;SDS011;6856;51.460;7.158;2022-08-02T18:52:42;1.08;;;0.98;;
13568;SDS011;6856;51.460;7.158;2022-08-02T18:55:18;2.53;;;0.85;;
13568;SDS011;6856;51.460;7.158;2022-08-02T18:58:12;2.50;;;1.00;;
13568;SDS011;6856;51.460;7.158;2022-08-02T19:00:50;1.92;;;1.00;;
13568;SDS011;6856;51.460;7.158;2022-08-02T19:03:25;1.08;;;0.98;;
13568;SDS011;6856;51.460;7.158;2022-08-02T19:06:00;1.42;;;1.10;;
13568;SDS011;6856;51.460;7.158;2022-08-02T19:08:37;3.65;;;1.10;;
13568;SDS011;6856;51.460;7.158;2022-08-02T19:11:11;1.98;;;1.00;;
13568;SDS011;6856;51.460;7.158;2022-08-02T19:13:45;1.00;;;0.70;;
13568;SDS011;6856;51.460;7.158;2022-08-02T19:16:19;3.58;;;1.05;;
13568;SDS011;6856;51.460;7.158;2022-08-02T19:19:07;1.98;;;1.40;;
13568;SDS011;6856;51.460;7.158;2022-08-02T19:21:51;3.03;;;1.05;;
13568;SDS011;6856;51.460;7.158;2022-08-02T19:24:46;1.15;;;0.93;;
13568;SDS011;6856;51.460;7.158;2022-08-02T19:27:32;1.50;;;1.02;;
13568;SDS011;6856;51.460;7.158;2022-08-02T19:30:07;1.42;;;1.00;;
13568;SDS011;6856;51.460;7.158;2022-08-02T19:32:44;0.80;;;0.80;;
13568;SDS011;6856;51.460;7.158;2022-08-02T19:35:30;1.65;;;0.98;;
13568;SDS011;6856;51.460;7.158;2022-08-02T19:38:08;1.77;;;1.10;;
13568;SDS011;6856;51.460;7.158;2022-08-02T19:40:42;1.25;;;0.90;;
13568;SDS011;6856;51.460;7.158;2022-08-02T19:43:17;1.10;;;0.95;;
13568;SDS011;6856;51.460;7.158;2022-08-02T19:46:11;1.83;;;1.10;;
13568;SDS011;6856;51.460;7.158;2022-08-02T19:48:46;1.73;;;1.10;;
13568;SDS011;6856;51.460;7.158;2022-08-02T19:51:20;1.50;;;1.25;;
13568;SDS011;6856;51.460;7.158;2022-08-02T19:54:16;1.50;;;1.20;;
13568;SDS011;6856;51.460;7.158;2022-08-02T19:57:06;3.42;;;1.17;;
13568;SDS011;6856;51.460;7.158;2022-08-02T19:59:44;1.48;;;1.17;;
13568;SDS011;6856;51.460;7.158;2022-08-02T20:02:20;3.20;;;1.10;;
13568;SDS011;6856;51.460;7.158;2022-08-02T20:04:54;1.58;;;1.05;;
13568;SDS011;6856;51.460;7.158;2022-08-02T20:07:28;1.27;;;1.10;;
13568;SDS011;6856;51.460;7.158;2022-08-02T20:10:23;1.00;;;0.90;;
13568;SDS011;6856;51.460;7.158;2022-08-02T20:12:58;1.52;;;1.20;;
13568;SDS011;6856;51.460;7.158;2022-08-02T20:15:33;2.20;;;1.30;;
13568;SDS011;6856;51.460;7.158;2022-08-02T20:18:27;1.15;;;0.80;;
13568;SDS011;6856;51.460;7.158;2022-08-02T20:21:02;1.65;;;0.90;;
13568;SDS011;6856;51.460;7.158;2022-08-02T20:23:56;1.10;;;0.90;;
13568;SDS011;6856;51.460;7.158;2022-08-02T20:26:31;1.17;;;0.95;;
13568;SDS011;6856;51.460;7.158;2022-08-02T20:29:08;1.60;;;1.13;;
13568;SDS011;6856;51.460;7.158;2022-08-02T20:31:43;1.80;;;1.20;;
13568;SDS011;6856;51.460;7.158;2022-08-02T20:34:17;0.80;;;0.80;;
13568;SDS011;6856;51.460;7.158;2022-08-02T20:36:56;0.93;;;0.85;;
13568;SDS011;6856;51.460;7.158;2022-08-02T20:39:50;1.40;;;0.93;;
13568;SDS011;6856;51.460;7.158;2022-08-02T20:42:27;1.15;;;0.90;;
13568;SDS011;6856;51.460;7.158;2022-08-02T20:45:01;2.15;;;0.98;;
13568;SDS011;6856;51.460;7.158;2022-08-02T20:47:35;1.27;;;0.85;;
13568;SDS011;6856;51.460;7.158;2022-08-02T20:50:10;1.88;;;1.05;;
13568;SDS011;6856;51.460;7.158;2022-08-02T20:53:03;2.33;;;1.20;;
13568;SDS011;6856;51.460;7.158;2022-08-02T20:55:54;1.50;;;0.90;;
13568;SDS011;6856;51.460;7.158;2022-08-02T20:58:31;1.63;;;1.27;;
13568;SDS011;6856;51.460;7.158;2022-08-02T21:01:06;1.60;;;1.10;;
13568;SDS011;6856;51.460;7.158;2022-08-02T21:03:40;1.63;;;1.08;;
13568;SDS011;6856;51.460;7.158;2022-08-02T21:06:24;0.60;;;0.60;;
13568;SDS011;6856;51.460;7.158;2022-08-02T21:08:58;1.63;;;0.90;;
13568;SDS011;6856;51.460;7.158;2022-08-02T21:16:41;2.22;;;1.27;;
13568;SDS011;6856;51.460;7.158;2022-08-02T21:19:15;1.88;;;1.00;;
13568;SDS011;6856;51.460;7.158;2022-08-02T21:21:52;1.08;;;0.90;;
13568;SDS011;6856;51.460;7.158;2022-08-02T21:24:27;1.38;;;1.00;;
13568;SDS011;6856;51.460;7.158;2022-08-02T21:27:01;1.38;;;0.90;;
13568;SDS011;6856;51.460;7.158;2022-08-02T21:29:55;1.20;;;1.00;;
13568;SDS011;6856;51.460;7.158;2022-08-02T21:32:30;1.58;;;1.10;;
13568;SDS011;6856;51.460;7.158;2022-08-02T21:35:06;2.17;;;0.80;;
13568;SDS011;6856;51.460;7.158;2022-08-02T21:37:40;1.73;;;0.80;;
13568;SDS011;6856;51.460;7.158;2022-08-02T21:40:15;1.10;;;1.00;;
13568;SDS011;6856;51.460;7.158;2022-08-02T21:42:51;2.10;;;0.95;;
13568;SDS011;6856;51.460;7.158;2022-08-02T21:45:25;1.77;;;1.10;;
13568;SDS011;6856;51.460;7.158;2022-08-02T21:48:03;0.98;;;0.88;;
13568;SDS011;6856;51.460;7.158;2022-08-02T21:50:38;1.83;;;1.17;;
13568;SDS011;6856;51.460;7.158;2022-08-02T21:53:12;1.15;;;1.05;;
13568;SDS011;6856;51.460;7.158;2022-08-02T21:56:06;1.45;;;1.15;;
13568;SDS011;6856;51.460;7.158;2022-08-02T21:58:40;3.78;;;1.20;;
13568;SDS011;6856;51.460;7.158;2022-08-02T22:01:14;2.88;;;1.33;;
13568;SDS011;6856;51.460;7.158;2022-08-02T22:03:56;2.15;;;1.10;;
13568;SDS011;6856;51.460;7.158;2022-08-02T22:06:30;2.50;;;1.08;;
13568;SDS011;6856;51.460;7.158;2022-08-02T22:09:07;1.45;;;0.98;;
13568;SDS011;6856;51.460;7.158;2022-08-02T22:11:48;1.08;;;0.90;;
13568;SDS011;6856;51.460;7.158;2022-08-02T22:14:22;1.02;;;0.90;;
13568;SDS011;6856;51.460;7.158;2022-08-02T22:16:58;1.98;;;1.00;;
13568;SDS011;6856;51.460;7.158;2022-08-02T22:19:40;0.85;;;0.77;;
13568;SDS011;6856;51.460;7.158;2022-08-02T22:22:24;1.60;;;1.10;;
13568;SDS011;6856;51.460;7.158;2022-08-02T22:24:59;2.33;;;1.10;;
13568;SDS011;6856;51.460;7.158;2022-08-02T22:27:57;1.02;;;0.90;;
13568;SDS011;6856;51.460;7.158;2022-08-02T22:30:51;1.15;;;0.90;;
13568;SDS011;6856;51.460;7.158;2022-08-02T22:33:27;1.15;;;1.02;;
13568;SDS011;6856;51.460;7.158;2022-08-02T22:36:33;1.63;;;1.02;;
13568;SDS011;6856;51.460;7.158;2022-08-02T22:39:13;1.15;;;1.02;;
13568;SDS011;6856;51.460;7.158;2022-08-02T22:41:50;1.52;;;0.90;;
13568;SDS011;6856;51.460;7.158;2022-08-02T22:44:37;1.65;;;0.98;;
13568;SDS011;6856;51.460;7.158;2022-08-02T22:47:14;1.27;;;1.05;;
13568;SDS011;6856;51.460;7.158;2022-08-02T22:49:50;1.02;;;0.82;;
13568;SDS011;6856;51.460;7.158;2022-08-02T22:52:31;1.40;;;0.98;;
13568;SDS011;6856;51.460;7.158;2022-08-02T22:55:06;1.88;;;0.90;;
13568;SDS011;6856;51.460;7.158;2022-08-02T22:57:44;1.60;;;0.90;;
13568;SDS011;6856;51.460;7.158;2022-08-02T23:00:27;3.20;;;1.17;;